sensor_id;sensor_type;location;lat;lon;timestamp;P1;durP1;ratioP1;P2;durP2;ratioP2
69573;SDS011;62840;52.366;5.980;2024-03-23T00:55:06;9.85;;;2.95;;
69573;SDS011;62840;52.366;5.980;2024-03-23T00:57:32;10.93;;;3.03;;
69573;SDS011;62840;52.366;5.980;2024-03-23T01:00:00;10.23;;;3.22;;
69573;SDS011;62840;52.366;5.980;2024-03-23T01:02:25;11.40;;;3.10;;
69573;SDS011;62840;52.366;5.980;2024-03-23T01:04:51;8.82;;;3.65;;
69573;SDS011;62840;52.366;5.980;2024-03-23T01:07:17;11.40;;;3.07;;
69573;SDS011;62840;52.366;5.980;2024-03-23T01:09:43;12.35;;;3.35;;
69573;SDS011;62840;52.366;5.980;2024-03-23T01:12:11;14.60;;;3.40;;
69573;SDS011;62840;52.366;5.980;2024-03-23T01:14:37;8.10;;;2.83;;
69573;SDS011;62840;52.366;5.980;2024-03-23T01:17:03;9.98;;;3.30;;
69573;SDS011;62840;52.366;5.980;2024-03-23T01:19:29;11.95;;;3.60;;
69573;SDS011;62840;52.366;5.980;2024-03-23T01:21:55;10.30;;;3.50;;
69573;SDS011;62840;52.366;5.980;2024-03-23T01:24:21;11.35;;;3.70;;
69573;SDS011;62840;52.366;5.980;2024-03-23T01:26:47;11.70;;;3.42;;
69573;SDS011;62840;52.366;5.980;2024-03-23T01:29:15;10.67;;;3.80;;
69573;SDS011;62840;52.366;5.980;2024-03-23T01:31:41;9.35;;;3.60;;
69573;SDS011;62840;52.366;5.980;2024-03-23T01:34:07;13.45;;;3.67;;
69573;SDS011;62840;52.366;5.980;2024-03-23T01:36:33;9.98;;;3.53;;
69573;SDS011;62840;52.366;5.980;2024-03-23T01:38:59;12.65;;;3.85;;
69573;SDS011;62840;52.366;5.980;2024-03-23T01:41:25;10.50;;;3.88;;
69573;SDS011;62840;52.366;5.980;2024-03-23T01:43:51;10.40;;;3.83;;
69573;SDS011;62840;52.366;5.980;2024-03-23T01:46:20;11.43;;;3.60;;
69573;SDS011;62840;52.366;5.980;2024-03-23T01:48:46;8.45;;;3.53;;
69573;SDS011;62840;52.366;5.980;2024-03-23T01:51:12;10.70;;;3.80;;
69573;SDS011;62840;52.366;5.980;2024-03-23T01:53:39;11.63;;;4.10;;
69573;SDS011;62840;52.366;5.980;2024-03-23T01:56:06;12.07;;;3.70;;
69573;SDS011;62840;52.366;5.980;2024-03-23T01:58:32;10.55;;;3.75;;
69573;SDS011;62840;52.366;5.980;2024-03-23T02:00:58;10.43;;;3.97;;
69573;SDS011;62840;52.366;5.980;2024-03-23T02:03:27;8.55;;;3.05;;
69573;SDS011;62840;52.366;5.980;2024-03-23T02:05:53;8.70;;;3.10;;
69573;SDS011;62840;52.366;5.980;2024-03-23T02:08:21;10.10;;;3.50;;
69573;SDS011;62840;52.366;5.980;2024-03-23T02:10:49;9.70;;;3.67;;
69573;SDS011;62840;52.366;5.980;2024-03-23T02:13:15;8.43;;;3.40;;
69573;SDS011;62840;52.366;5.980;2024-03-23T02:15:42;9.97;;;3.70;;
69573;SDS011;62840;52.366;5.980;2024-03-23T02:18:09;9.02;;;3.50;;
69573;SDS011;62840;52.366;5.980;2024-03-23T02:20:37;11.68;;;3.58;;
69573;SDS011;62840;52.366;5.980;2024-03-23T02:23:10;12.95;;;3.53;;
69573;SDS011;62840;52.366;5.980;2024-03-23T02:25:38;10.27;;;3.45;;
69573;SDS011;62840;52.366;5.980;2024-03-23T02:28:05;10.33;;;3.20;;
69573;SDS011;62840;52.366;5.980;2024-03-23T02:30:31;10.93;;;3.28;;
69573;SDS011;62840;52.366;5.980;2024-03-23T02:32:56;8.77;;;3.15;;
69573;SDS011;62840;52.366;5.980;2024-03-23T02:35:22;8.75;;;4.13;;
69573;SDS011;62840;52.366;5.980;2024-03-23T02:37:48;8.95;;;3.35;;
69573;SDS011;62840;52.366;5.980;2024-03-23T02:40:17;9.30;;;3.33;;
69573;SDS011;62840;52.366;5.980;2024-03-23T02:42:43;9.80;;;3.95;;
69573;SDS011;62840;52.366;5.980;2024-03-23T02:45:09;9.50;;;3.70;;
69573;SDS011;62840;52.366;5.980;2024-03-23T02:47:35;10.48;;;3.70;;
69573;SDS011;62840;52.366;5.980;2024-03-23T02:50:01;6.97;;;3.75;;
69573;SDS011;62840;52.366;5.980;2024-03-23T02:52:27;8.90;;;3.00;;
69573;SDS011;62840;52.366;5.980;2024-03-23T02:54:53;10.02;;;3.42;;
69573;SDS011;62840;52.366;5.980;2024-03-23T02:57:21;9.48;;;2.97;;
69573;SDS011;62840;52.366;5.980;2024-03-23T02:59:47;10.03;;;3.30;;
69573;SDS011;62840;52.366;5.980;2024-03-23T03:02:13;9.13;;;2.92;;
69573;SDS011;62840;52.366;5.980;2024-03-23T03:04:40;9.40;;;3.78;;
69573;SDS011;62840;52.366;5.980;2024-03-23T03:07:06;11.35;;;3.60;;
69573;SDS011;62840;52.366;5.980;2024-03-23T03:09:32;9.80;;;3.20;;
69573;SDS011;62840;52.366;5.980;2024-03-23T03:11:58;9.30;;;3.17;;
69573;SDS011;62840;52.366;5.980;2024-03-23T03:14:26;9.67;;;3.63;;
69573;SDS011;62840;52.366;5.980;2024-03-23T03:16:52;8.45;;;3.17;;
69573;SDS011;62840;52.366;5.980;2024-03-23T03:19:18;8.35;;;3.30;;
69573;SDS011;62840;52.366;5.980;2024-03-23T03:21:44;9.87;;;3.47;;
69573;SDS011;62840;52.366;5.980;2024-03-23T03:24:10;9.45;;;3.13;;
69573;SDS011;62840;52.366;5.980;2024-03-23T03:26:36;8.05;;;3.67;;
69573;SDS011;62840;52.366;5.980;2024-03-23T03:29:02;8.20;;;3.00;;
69573;SDS011;62840;52.366;5.980;2024-03-23T03:31:31;12.43;;;3.55;;
69573;SDS011;62840;52.366;5.980;2024-03-23T03:33:56;10.73;;;3.58;;
69573;SDS011;62840;52.366;5.980;2024-03-23T03:36:22;7.47;;;3.40;;
69573;SDS011;62840;52.366;5.980;2024-03-23T03:38:48;9.20;;;3.20;;
69573;SDS011;62840;52.366;5.980;2024-03-23T03:41:14;8.85;;;3.72;;
69573;SDS011;62840;52.366;5.980;2024-03-23T03:43:40;11.35;;;3.15;;
69573;SDS011;62840;52.366;5.980;2024-03-23T03:46:06;9.83;;;3.80;;
69573;SDS011;62840;52.366;5.980;2024-03-23T03:48:34;10.57;;;3.42;;
69573;SDS011;62840;52.366;5.980;2024-03-23T03:51:00;11.10;;;3.78;;
69573;SDS011;62840;52.366;5.980;2024-03-23T03:53:26;8.70;;;3.80;;
69573;SDS011;62840;52.366;5.980;2024-03-23T03:55:52;8.70;;;3.50;;
69573;SDS011;62840;52.366;5.980;2024-03-23T03:58:18;9.70;;;3.08;;
69573;SDS011;62840;52.366;5.980;2024-03-23T04:00:44;8.93;;;3.67;;
69573;SDS011;62840;52.366;5.980;2024-03-23T04:03:09;9.65;;;3.88;;
69573;SDS011;62840;52.366;5.980;2024-03-23T04:05:38;9.57;;;3.03;;
69573;SDS011;62840;52.366;5.980;2024-03-23T04:08:05;10.07;;;3.60;;
69573;SDS011;62840;52.366;5.980;2024-03-23T04:10:32;7.97;;;3.50;;
69573;SDS011;62840;52.366;5.980;2024-03-23T04:12:58;9.80;;;3.25;;
69573;SDS011;62840;52.366;5.980;2024-03-23T04:15:24;8.60;;;3.43;;
69573;SDS011;62840;52.366;5.980;2024-03-23T04:17:50;12.45;;;3.70;;
69573;SDS011;62840;52.366;5.980;2024-03-23T04:20:16;7.25;;;3.33;;
69573;SDS011;62840;52.366;5.980;2024-03-23T04:22:46;8.32;;;3.35;;
69573;SDS011;62840;52.366;5.980;2024-03-23T04:25:13;7.40;;;3.25;;
69573;SDS011;62840;52.366;5.980;2024-03-23T04:27:39;10.27;;;3.60;;
69573;SDS011;62840;52.366;5.980;2024-03-23T04:30:05;6.82;;;3.03;;
69573;SDS011;62840;52.366;5.980;2024-03-23T04:32:32;7.63;;;3.00;;
69573;SDS011;62840;52.366;5.980;2024-03-23T04:34:58;7.63;;;2.80;;
69573;SDS011;62840;52.366;5.980;2024-03-23T04:37:24;10.07;;;2.97;;
69573;SDS011;62840;52.366;5.980;2024-03-23T04:39:52;7.23;;;3.07;;
69573;SDS011;62840;52.366;5.980;2024-03-23T04:42:18;8.32;;;2.83;;
69573;SDS011;62840;52.366;5.980;2024-03-23T04:44:44;8.02;;;2.63;;
69573;SDS011;62840;52.366;5.980;2024-03-23T04:47:10;8.20;;;3.50;;
69573;SDS011;62840;52.366;5.980;2024-03-23T04:49:36;10.05;;;2.72;;
69573;SDS011;62840;52.366;5.980;2024-03-23T04:52:02;8.20;;;3.33;;
69573;SDS011;62840;52.366;5.980;2024-03-23T04:54:29;8.97;;;2.77;;
69573;SDS011;62840;52.366;5.980;2024-03-23T04:56:57;8.52;;;3.00;;
69573;SDS011;62840;52.366;5.980;2024-03-23T04:59:23;7.88;;;2.95;;
69573;SDS011;62840;52.366;5.980;2024-03-23T05:01:49;7.40;;;2.70;;
69573;SDS011;62840;52.366;5.980;2024-03-23T05:04:15;9.20;;;3.10;;
69573;SDS011;62840;52.366;5.980;2024-03-23T05:06:41;9.25;;;3.55;;
69573;SDS011;62840;52.366;5.980;2024-03-23T05:09:07;8.75;;;3.15;;
69573;SDS011;62840;52.366;5.980;2024-03-23T05:11:33;8.00;;;3.23;;
69573;SDS011;62840;52.366;5.980;2024-03-23T05:14:01;9.75;;;3.20;;
69573;SDS011;62840;52.366;5.980;2024-03-23T05:16:27;7.57;;;2.78;;
69573;SDS011;62840;52.366;5.980;2024-03-23T05:18:53;8.87;;;3.20;;
69573;SDS011;62840;52.366;5.980;2024-03-23T05:21:19;7.95;;;2.90;;
69573;SDS011;62840;52.366;5.980;2024-03-23T05:23:45;7.47;;;2.70;;
69573;SDS011;62840;52.366;5.980;2024-03-23T05:26:11;8.30;;;3.20;;
69573;SDS011;62840;52.366;5.980;2024-03-23T05:28:37;6.93;;;3.00;;
69573;SDS011;62840;52.366;5.980;2024-03-23T05:31:05;7.57;;;3.03;;
69573;SDS011;62840;52.366;5.980;2024-03-23T05:33:31;10.82;;;3.00;;
69573;SDS011;62840;52.366;5.980;2024-03-23T05:35:57;8.13;;;2.83;;
69573;SDS011;62840;52.366;5.980;2024-03-23T05:38:25;8.30;;;3.47;;
69573;SDS011;62840;52.366;5.980;2024-03-23T05:40:54;9.50;;;2.90;;
69573;SDS011;62840;52.366;5.980;2024-03-23T05:43:20;8.57;;;3.60;;
69573;SDS011;62840;52.366;5.980;2024-03-23T05:45:46;10.03;;;3.37;;
69573;SDS011;62840;52.366;5.980;2024-03-23T05:48:21;7.90;;;3.00;;
69573;SDS011;62840;52.366;5.980;2024-03-23T05:50:48;7.97;;;3.60;;
69573;SDS011;62840;52.366;5.980;2024-03-23T05:53:14;8.55;;;3.47;;
69573;SDS011;62840;52.366;5.980;2024-03-23T05:55:43;8.77;;;3.40;;
69573;SDS011;62840;52.366;5.980;2024-03-23T05:58:09;9.85;;;3.50;;
69573;SDS011;62840;52.366;5.980;2024-03-23T06:00:35;8.68;;;3.88;;
69573;SDS011;62840;52.366;5.980;2024-03-23T06:03:01;10.85;;;3.05;;
69573;SDS011;62840;52.366;5.980;2024-03-23T06:05:30;8.70;;;3.50;;
69573;SDS011;62840;52.366;5.980;2024-03-23T06:07:56;7.20;;;2.92;;
69573;SDS011;62840;52.366;5.980;2024-03-23T06:10:22;9.00;;;3.17;;
69573;SDS011;62840;52.366;5.980;2024-03-23T06:12:48;9.98;;;2.75;;
69573;SDS011;62840;52.366;5.980;2024-03-23T06:15:14;8.20;;;2.53;;
69573;SDS011;62840;52.366;5.980;2024-03-23T06:17:40;10.10;;;2.33;;
69573;SDS011;62840;52.366;5.980;2024-03-23T06:20:06;9.52;;;2.17;;
69573;SDS011;62840;52.366;5.980;2024-03-23T06:22:36;9.88;;;2.15;;
69573;SDS011;62840;52.366;5.980;2024-03-23T06:25:02;8.43;;;1.93;;
69573;SDS011;62840;52.366;5.980;2024-03-23T06:27:29;6.47;;;2.13;;
69573;SDS011;62840;52.366;5.980;2024-03-23T06:29:54;7.22;;;1.95;;
69573;SDS011;62840;52.366;5.980;2024-03-23T06:32:20;7.23;;;1.40;;
69573;SDS011;62840;52.366;5.980;2024-03-23T06:34:47;6.13;;;1.50;;
69573;SDS011;62840;52.366;5.980;2024-03-23T06:37:13;7.85;;;1.60;;
69573;SDS011;62840;52.366;5.980;2024-03-23T06:39:41;6.67;;;1.50;;
69573;SDS011;62840;52.366;5.980;2024-03-23T06:42:07;5.50;;;1.25;;
69573;SDS011;62840;52.366;5.980;2024-03-23T06:44:33;6.43;;;1.40;;
69573;SDS011;62840;52.366;5.980;2024-03-23T06:47:00;4.78;;;1.45;;
69573;SDS011;62840;52.366;5.980;2024-03-23T06:49:26;5.77;;;0.90;;
69573;SDS011;62840;52.366;5.980;2024-03-23T06:51:52;6.70;;;1.20;;
69573;SDS011;62840;52.366;5.980;2024-03-23T06:54:19;5.18;;;1.00;;
69573;SDS011;62840;52.366;5.980;2024-03-23T06:56:48;4.83;;;1.73;;
69573;SDS011;62840;52.366;5.980;2024-03-23T06:59:14;5.07;;;1.02;;
69573;SDS011;62840;52.366;5.980;2024-03-23T07:01:39;3.55;;;1.17;;
69573;SDS011;62840;52.366;5.980;2024-03-23T07:04:05;6.50;;;1.23;;
69573;SDS011;62840;52.366;5.980;2024-03-23T07:06:31;3.90;;;1.20;;
69573;SDS011;62840;52.366;5.980;2024-03-23T07:08:57;5.38;;;1.10;;
69573;SDS011;62840;52.366;5.980;2024-03-23T07:11:23;5.40;;;1.27;;
69573;SDS011;62840;52.366;5.980;2024-03-23T07:13:53;4.32;;;1.10;;
69573;SDS011;62840;52.366;5.980;2024-03-23T07:16:19;4.85;;;1.13;;
69573;SDS011;62840;52.366;5.980;2024-03-23T07:18:44;5.90;;;1.40;;
69573;SDS011;62840;52.366;5.980;2024-03-23T07:21:11;5.63;;;1.10;;
69573;SDS011;62840;52.366;5.980;2024-03-23T07:23:37;5.30;;;1.42;;
69573;SDS011;62840;52.366;5.980;2024-03-23T07:26:04;5.38;;;1.48;;
69573;SDS011;62840;52.366;5.980;2024-03-23T07:28:30;5.70;;;1.33;;
69573;SDS011;62840;52.366;5.980;2024-03-23T07:31:05;4.70;;;1.55;;
69573;SDS011;62840;52.366;5.980;2024-03-23T07:33:34;4.87;;;1.30;;
69573;SDS011;62840;52.366;5.980;2024-03-23T07:36:03;5.10;;;1.30;;
69573;SDS011;62840;52.366;5.980;2024-03-23T07:38:30;5.05;;;1.42;;
69573;SDS011;62840;52.366;5.980;2024-03-23T07:41:05;4.35;;;1.25;;
69573;SDS011;62840;52.366;5.980;2024-03-23T07:43:31;7.00;;;1.50;;
69573;SDS011;62840;52.366;5.980;2024-03-23T07:45:57;5.93;;;1.98;;
69573;SDS011;62840;52.366;5.980;2024-03-23T07:48:26;6.90;;;1.85;;
69573;SDS011;62840;52.366;5.980;2024-03-23T07:51:00;7.57;;;2.13;;
69573;SDS011;62840;52.366;5.980;2024-03-23T07:53:27;6.50;;;1.85;;
69573;SDS011;62840;52.366;5.980;2024-03-23T07:55:54;6.57;;;2.40;;
69573;SDS011;62840;52.366;5.980;2024-03-23T07:58:22;6.93;;;2.05;;
69573;SDS011;62840;52.366;5.980;2024-03-23T08:00:48;5.53;;;2.20;;
69573;SDS011;62840;52.366;5.980;2024-03-23T08:03:14;7.00;;;1.75;;
69573;SDS011;62840;52.366;5.980;2024-03-23T08:05:42;9.07;;;2.40;;
69573;SDS011;62840;52.366;5.980;2024-03-23T08:08:08;6.18;;;1.90;;
69573;SDS011;62840;52.366;5.980;2024-03-23T08:10:34;6.13;;;2.17;;
69573;SDS011;62840;52.366;5.980;2024-03-23T08:13:00;6.77;;;2.50;;
69573;SDS011;62840;52.366;5.980;2024-03-23T08:15:25;7.07;;;2.30;;
69573;SDS011;62840;52.366;5.980;2024-03-23T08:17:51;9.40;;;1.98;;
69573;SDS011;62840;52.366;5.980;2024-03-23T08:20:17;6.90;;;2.33;;
69573;SDS011;62840;52.366;5.980;2024-03-23T08:22:46;6.07;;;2.10;;
69573;SDS011;62840;52.366;5.980;2024-03-23T08:25:12;6.95;;;2.35;;
69573;SDS011;62840;52.366;5.980;2024-03-23T08:27:38;7.03;;;2.53;;
69573;SDS011;62840;52.366;5.980;2024-03-23T08:30:04;10.13;;;2.23;;
69573;SDS011;62840;52.366;5.980;2024-03-23T08:32:31;9.18;;;2.72;;
69573;SDS011;62840;52.366;5.980;2024-03-23T08:34:57;7.60;;;2.20;;
69573;SDS011;62840;52.366;5.980;2024-03-23T08:37:23;10.70;;;2.30;;
69573;SDS011;62840;52.366;5.980;2024-03-23T08:39:53;9.50;;;2.33;;
69573;SDS011;62840;52.366;5.980;2024-03-23T08:42:19;5.70;;;2.47;;
69573;SDS011;62840;52.366;5.980;2024-03-23T08:44:46;6.90;;;2.20;;
69573;SDS011;62840;52.366;5.980;2024-03-23T08:47:12;7.38;;;1.90;;
69573;SDS011;62840;52.366;5.980;2024-03-23T08:49:38;8.98;;;2.17;;
69573;SDS011;62840;52.366;5.980;2024-03-23T08:52:05;7.23;;;1.93;;
69573;SDS011;62840;52.366;5.980;2024-03-23T08:54:31;7.30;;;2.33;;
69573;SDS011;62840;52.366;5.980;2024-03-23T08:56:59;8.15;;;2.13;;
69573;SDS011;62840;52.366;5.980;2024-03-23T08:59:25;8.40;;;2.13;;
69573;SDS011;62840;52.366;5.980;2024-03-23T09:01:51;8.82;;;2.20;;
69573;SDS011;62840;52.366;5.980;2024-03-23T09:04:18;5.55;;;2.17;;
69573;SDS011;62840;52.366;5.980;2024-03-23T09:06:44;5.05;;;1.70;;
69573;SDS011;62840;52.366;5.980;2024-03-23T09:09:10;7.65;;;2.08;;
69573;SDS011;62840;52.366;5.980;2024-03-23T09:11:36;7.53;;;2.53;;
69573;SDS011;62840;52.366;5.980;2024-03-23T09:14:04;8.60;;;1.80;;
69573;SDS011;62840;52.366;5.980;2024-03-23T09:16:30;5.85;;;1.75;;
69573;SDS011;62840;52.366;5.980;2024-03-23T09:18:56;7.85;;;1.50;;
69573;SDS011;62840;52.366;5.980;2024-03-23T09:21:22;7.28;;;1.70;;
69573;SDS011;62840;52.366;5.980;2024-03-23T09:23:48;7.88;;;2.00;;
69573;SDS011;62840;52.366;5.980;2024-03-23T09:26:14;6.23;;;1.47;;
69573;SDS011;62840;52.366;5.980;2024-03-23T09:28:40;7.13;;;1.52;;
69573;SDS011;62840;52.366;5.980;2024-03-23T09:31:08;7.45;;;1.50;;
69573;SDS011;62840;52.366;5.980;2024-03-23T09:33:34;4.63;;;1.45;;
69573;SDS011;62840;52.366;5.980;2024-03-23T09:36:02;5.67;;;1.40;;
69573;SDS011;62840;52.366;5.980;2024-03-23T09:38:30;6.75;;;1.20;;
69573;SDS011;62840;52.366;5.980;2024-03-23T09:40:56;4.80;;;1.60;;
69573;SDS011;62840;52.366;5.980;2024-03-23T09:43:23;7.32;;;1.30;;
69573;SDS011;62840;52.366;5.980;2024-03-23T09:45:50;5.63;;;1.50;;
69573;SDS011;62840;52.366;5.980;2024-03-23T09:48:20;6.90;;;1.75;;
69573;SDS011;62840;52.366;5.980;2024-03-23T09:50:46;7.80;;;1.38;;
69573;SDS011;62840;52.366;5.980;2024-03-23T09:53:12;6.80;;;1.15;;
69573;SDS011;62840;52.366;5.980;2024-03-23T09:55:40;8.17;;;1.93;;
69573;SDS011;62840;52.366;5.980;2024-03-23T09:58:07;7.95;;;1.83;;
69573;SDS011;62840;52.366;5.980;2024-03-23T10:00:37;6.13;;;1.27;;
69573;SDS011;62840;52.366;5.980;2024-03-23T10:03:04;3.83;;;1.00;;
69573;SDS011;62840;52.366;5.980;2024-03-23T10:05:33;5.78;;;1.13;;
69573;SDS011;62840;52.366;5.980;2024-03-23T10:07:58;4.43;;;1.30;;
69573;SDS011;62840;52.366;5.980;2024-03-23T10:10:25;3.28;;;1.00;;
69573;SDS011;62840;52.366;5.980;2024-03-23T10:12:51;3.75;;;1.10;;
69573;SDS011;62840;52.366;5.980;2024-03-23T10:15:21;5.18;;;1.17;;
69573;SDS011;62840;52.366;5.980;2024-03-23T10:17:48;3.27;;;1.00;;
69573;SDS011;62840;52.366;5.980;2024-03-23T10:20:18;3.88;;;1.08;;
69573;SDS011;62840;52.366;5.980;2024-03-23T10:22:48;5.35;;;1.23;;
69573;SDS011;62840;52.366;5.980;2024-03-23T10:25:15;6.35;;;1.33;;
69573;SDS011;62840;52.366;5.980;2024-03-23T10:27:41;4.68;;;1.30;;
69573;SDS011;62840;52.366;5.980;2024-03-23T10:30:08;6.37;;;0.90;;
69573;SDS011;62840;52.366;5.980;2024-03-23T10:32:35;5.65;;;1.60;;
69573;SDS011;62840;52.366;5.980;2024-03-23T10:37:48;5.45;;;1.60;;
69573;SDS011;62840;52.366;5.980;2024-03-23T10:40:17;8.23;;;1.30;;
69573;SDS011;62840;52.366;5.980;2024-03-23T10:42:43;5.85;;;1.30;;
69573;SDS011;62840;52.366;5.980;2024-03-23T10:45:09;3.22;;;1.00;;
69573;SDS011;62840;52.366;5.980;2024-03-23T10:47:36;2.92;;;1.08;;
69573;SDS011;62840;52.366;5.980;2024-03-23T10:50:03;3.65;;;0.80;;
69573;SDS011;62840;52.366;5.980;2024-03-23T10:52:30;5.43;;;1.13;;
69573;SDS011;62840;52.366;5.980;2024-03-23T10:54:58;4.35;;;0.73;;
69573;SDS011;62840;52.366;5.980;2024-03-23T10:57:30;4.45;;;1.20;;
69573;SDS011;62840;52.366;5.980;2024-03-23T11:00:04;3.78;;;0.90;;
69573;SDS011;62840;52.366;5.980;2024-03-23T11:02:32;5.72;;;1.10;;
69573;SDS011;62840;52.366;5.980;2024-03-23T11:04:58;4.50;;;1.10;;
69573;SDS011;62840;52.366;5.980;2024-03-23T11:07:30;4.03;;;1.38;;
69573;SDS011;62840;52.366;5.980;2024-03-23T11:10:00;5.43;;;1.58;;
69573;SDS011;62840;52.366;5.980;2024-03-23T11:12:26;6.23;;;1.40;;
69573;SDS011;62840;52.366;5.980;2024-03-23T11:14:54;5.15;;;1.33;;
69573;SDS011;62840;52.366;5.980;2024-03-23T11:17:25;5.72;;;1.48;;
69573;SDS011;62840;52.366;5.980;2024-03-23T11:19:53;5.70;;;1.52;;
69573;SDS011;62840;52.366;5.980;2024-03-23T11:25:13;7.33;;;1.60;;
69573;SDS011;62840;52.366;5.980;2024-03-23T11:27:41;4.65;;;1.25;;
69573;SDS011;62840;52.366;5.980;2024-03-23T11:30:09;4.93;;;1.40;;
69573;SDS011;62840;52.366;5.980;2024-03-23T11:32:40;5.78;;;1.42;;
69573;SDS011;62840;52.366;5.980;2024-03-23T11:35:07;9.50;;;1.50;;
69573;SDS011;62840;52.366;5.980;2024-03-23T11:37:33;7.87;;;1.47;;
69573;SDS011;62840;52.366;5.980;2024-03-23T11:39:59;6.00;;;1.40;;
69573;SDS011;62840;52.366;5.980;2024-03-23T11:42:28;7.68;;;1.25;;
69573;SDS011;62840;52.366;5.980;2024-03-23T11:44:53;3.23;;;1.10;;
69573;SDS011;62840;52.366;5.980;2024-03-23T11:47:19;4.90;;;1.10;;
69573;SDS011;62840;52.366;5.980;2024-03-23T11:49:45;4.53;;;0.93;;
69573;SDS011;62840;52.366;5.980;2024-03-23T11:52:14;4.23;;;1.27;;
69573;SDS011;62840;52.366;5.980;2024-03-23T11:54:41;5.25;;;1.13;;
69573;SDS011;62840;52.366;5.980;2024-03-23T11:57:07;4.53;;;1.35;;
69573;SDS011;62840;52.366;5.980;2024-03-23T11:59:38;4.38;;;0.93;;
69573;SDS011;62840;52.366;5.980;2024-03-23T12:02:08;5.37;;;1.00;;
69573;SDS011;62840;52.366;5.980;2024-03-23T12:04:35;4.68;;;0.95;;
69573;SDS011;62840;52.366;5.980;2024-03-23T12:07:10;4.93;;;1.13;;
69573;SDS011;62840;52.366;5.980;2024-03-23T12:09:37;4.72;;;1.30;;
69573;SDS011;62840;52.366;5.980;2024-03-23T12:12:08;6.57;;;1.37;;
69573;SDS011;62840;52.366;5.980;2024-03-23T12:14:39;4.78;;;0.93;;
69573;SDS011;62840;52.366;5.980;2024-03-23T12:17:11;5.18;;;1.30;;
69573;SDS011;62840;52.366;5.980;2024-03-23T12:19:38;5.55;;;1.38;;
69573;SDS011;62840;52.366;5.980;2024-03-23T12:22:05;7.00;;;1.92;;
69573;SDS011;62840;52.366;5.980;2024-03-23T12:24:31;5.87;;;1.60;;
69573;SDS011;62840;52.366;5.980;2024-03-23T12:26:59;4.28;;;1.38;;
69573;SDS011;62840;52.366;5.980;2024-03-23T12:29:28;6.13;;;1.40;;
69573;SDS011;62840;52.366;5.980;2024-03-23T12:31:58;10.32;;;1.63;;
69573;SDS011;62840;52.366;5.980;2024-03-23T12:34:25;4.65;;;1.27;;
69573;SDS011;62840;52.366;5.980;2024-03-23T12:36:51;5.27;;;1.47;;
69573;SDS011;62840;52.366;5.980;2024-03-23T12:39:17;6.78;;;1.33;;
69573;SDS011;62840;52.366;5.980;2024-03-23T12:41:43;4.50;;;1.50;;
69573;SDS011;62840;52.366;5.980;2024-03-23T12:44:09;8.13;;;1.38;;
69573;SDS011;62840;52.366;5.980;2024-03-23T12:46:35;6.00;;;1.63;;
69573;SDS011;62840;52.366;5.980;2024-03-23T12:49:03;5.68;;;1.17;;
69573;SDS011;62840;52.366;5.980;2024-03-23T12:51:30;6.47;;;1.48;;
69573;SDS011;62840;52.366;5.980;2024-03-23T12:53:55;7.37;;;1.00;;
69573;SDS011;62840;52.366;5.980;2024-03-23T12:56:21;5.32;;;1.30;;
69573;SDS011;62840;52.366;5.980;2024-03-23T12:58:47;7.65;;;1.45;;
69573;SDS011;62840;52.366;5.980;2024-03-23T13:01:13;4.80;;;1.03;;
69573;SDS011;62840;52.366;5.980;2024-03-23T13:03:39;5.13;;;1.50;;
69573;SDS011;62840;52.366;5.980;2024-03-23T13:06:07;6.60;;;1.30;;
69573;SDS011;62840;52.366;5.980;2024-03-23T13:08:33;3.93;;;0.80;;
69573;SDS011;62840;52.366;5.980;2024-03-23T13:10:59;6.75;;;1.30;;
69573;SDS011;62840;52.366;5.980;2024-03-23T13:13:25;4.72;;;0.82;;
69573;SDS011;62840;52.366;5.980;2024-03-23T13:15:51;3.40;;;0.90;;
69573;SDS011;62840;52.366;5.980;2024-03-23T13:18:17;6.63;;;1.30;;
69573;SDS011;62840;52.366;5.980;2024-03-23T13:20:43;5.40;;;1.42;;
69573;SDS011;62840;52.366;5.980;2024-03-23T13:23:11;7.00;;;1.30;;
69573;SDS011;62840;52.366;5.980;2024-03-23T13:25:37;3.67;;;1.08;;
69573;SDS011;62840;52.366;5.980;2024-03-23T13:28:03;3.47;;;0.90;;
69573;SDS011;62840;52.366;5.980;2024-03-23T13:30:30;4.30;;;0.80;;
69573;SDS011;62840;52.366;5.980;2024-03-23T13:32:56;4.22;;;0.80;;
69573;SDS011;62840;52.366;5.980;2024-03-23T13:35:22;3.75;;;0.90;;
69573;SDS011;62840;52.366;5.980;2024-03-23T13:37:47;4.23;;;0.93;;
69573;SDS011;62840;52.366;5.980;2024-03-23T13:40:16;2.40;;;0.82;;
69573;SDS011;62840;52.366;5.980;2024-03-23T13:42:42;3.00;;;0.60;;
69573;SDS011;62840;52.366;5.980;2024-03-23T13:45:08;3.73;;;0.70;;
69573;SDS011;62840;52.366;5.980;2024-03-23T13:47:34;4.57;;;0.75;;
69573;SDS011;62840;52.366;5.980;2024-03-23T13:50:00;4.43;;;1.02;;
69573;SDS011;62840;52.366;5.980;2024-03-23T13:52:26;5.03;;;1.23;;
69573;SDS011;62840;52.366;5.980;2024-03-23T13:54:52;4.65;;;0.80;;
69573;SDS011;62840;52.366;5.980;2024-03-23T13:57:20;4.93;;;0.75;;
69573;SDS011;62840;52.366;5.980;2024-03-23T13:59:46;2.63;;;0.80;;
69573;SDS011;62840;52.366;5.980;2024-03-23T14:02:12;4.38;;;0.90;;
69573;SDS011;62840;52.366;5.980;2024-03-23T14:04:38;3.60;;;0.82;;
69573;SDS011;62840;52.366;5.980;2024-03-23T14:07:03;4.67;;;1.00;;
69573;SDS011;62840;52.366;5.980;2024-03-23T14:09:29;9.20;;;1.42;;
69573;SDS011;62840;52.366;5.980;2024-03-23T14:11:55;5.37;;;1.10;;
69573;SDS011;62840;52.366;5.980;2024-03-23T14:14:24;5.00;;;0.90;;
69573;SDS011;62840;52.366;5.980;2024-03-23T14:16:49;6.43;;;0.98;;
69573;SDS011;62840;52.366;5.980;2024-03-23T14:19:15;3.70;;;0.80;;
69573;SDS011;62840;52.366;5.980;2024-03-23T14:21:41;6.15;;;0.90;;
69573;SDS011;62840;52.366;5.980;2024-03-23T14:24:07;6.38;;;0.88;;
69573;SDS011;62840;52.366;5.980;2024-03-23T14:26:33;5.53;;;0.90;;
69573;SDS011;62840;52.366;5.980;2024-03-23T14:28:59;6.85;;;1.17;;
69573;SDS011;62840;52.366;5.980;2024-03-23T14:31:28;7.25;;;1.02;;
69573;SDS011;62840;52.366;5.980;2024-03-23T14:33:54;6.85;;;1.05;;
69573;SDS011;62840;52.366;5.980;2024-03-23T14:36:20;5.97;;;1.40;;
69573;SDS011;62840;52.366;5.980;2024-03-23T14:38:47;4.60;;;0.93;;
69573;SDS011;62840;52.366;5.980;2024-03-23T14:41:13;5.38;;;0.93;;
69573;SDS011;62840;52.366;5.980;2024-03-23T14:43:39;5.33;;;0.90;;
69573;SDS011;62840;52.366;5.980;2024-03-23T14:46:06;5.88;;;1.02;;
69573;SDS011;62840;52.366;5.980;2024-03-23T14:48:36;5.40;;;0.90;;
69573;SDS011;62840;52.366;5.980;2024-03-23T14:51:02;4.32;;;1.00;;
69573;SDS011;62840;52.366;5.980;2024-03-23T14:53:30;5.87;;;1.07;;
69573;SDS011;62840;52.366;5.980;2024-03-23T14:55:57;2.95;;;1.00;;
69573;SDS011;62840;52.366;5.980;2024-03-23T14:58:23;5.30;;;1.00;;
69573;SDS011;62840;52.366;5.980;2024-03-23T15:00:49;3.88;;;0.98;;
69573;SDS011;62840;52.366;5.980;2024-03-23T15:03:15;4.10;;;0.90;;
69573;SDS011;62840;52.366;5.980;2024-03-23T15:05:43;4.45;;;0.80;;
69573;SDS011;62840;52.366;5.980;2024-03-23T15:08:18;5.10;;;0.82;;
69573;SDS011;62840;52.366;5.980;2024-03-23T15:10:43;8.27;;;1.20;;
69573;SDS011;62840;52.366;5.980;2024-03-23T15:13:09;5.18;;;1.27;;
69573;SDS011;62840;52.366;5.980;2024-03-23T15:15:37;5.55;;;0.93;;
69573;SDS011;62840;52.366;5.980;2024-03-23T15:18:04;6.63;;;1.08;;
69573;SDS011;62840;52.366;5.980;2024-03-23T15:20:30;5.22;;;1.02;;
69573;SDS011;62840;52.366;5.980;2024-03-23T15:22:59;3.17;;;1.02;;
69573;SDS011;62840;52.366;5.980;2024-03-23T15:25:25;3.43;;;0.93;;
69573;SDS011;62840;52.366;5.980;2024-03-23T15:27:51;4.85;;;1.05;;
69573;SDS011;62840;52.366;5.980;2024-03-23T15:30:16;4.00;;;1.13;;
69573;SDS011;62840;52.366;5.980;2024-03-23T15:32:42;8.00;;;1.33;;
69573;SDS011;62840;52.366;5.980;2024-03-23T15:35:08;5.07;;;0.90;;
69573;SDS011;62840;52.366;5.980;2024-03-23T15:37:34;3.22;;;0.60;;
69573;SDS011;62840;52.366;5.980;2024-03-23T15:40:03;3.90;;;0.93;;
69573;SDS011;62840;52.366;5.980;2024-03-23T15:42:30;4.40;;;0.90;;